Upperstrasburg, PA (17265)

11:42 AM EDT on July 30, 2016 (GMT -0400)
Edenville | | Change Station

Elev 958 ft 39.96 °N, 77.82 °W | Updated 11 seconds ago

Light Rain
Light Rain
78.1 °F
Feels Like 81 °F
N
2.7
Wind Variable Wind from SE

Today
High -- | Low -- °F
--% Chance of Precip.
Yesterday
High -- | Low -- °F
Precip. -- in
Pressure 30.00 in
Visibility 6.0 miles
Clouds Few 1300 ft
Mostly Cloudy 4600 ft
Overcast 8000 ft
Heat Index 81 °F
Dew Point 76 °F
Humidity 93%
Rainfall 0.09 in
Snow Depth Not available.
6:07 AM 8:26 PM
Waning Crescent, 12% visible
METAR KHGR 301453Z 12006KT 6SM -RA FEW013 BKN046 OVC080 25/22 A2999 RMK AO2 RAB38 SLP158 P0000 60000 T02500222 51003
Pressure 30.00 in
Visibility 6.0 miles
Clouds Few 1300 ft
Mostly Cloudy 4600 ft
Overcast 8000 ft
Heat Index 81 °F
Dew Point 76 °F
Humidity 93%
Rainfall 0.09 in
Snow Depth Not available.
6:07 AM 8:26 PM
Waning Crescent, 12% visible
METAR KHGR 301453Z 12006KT 6SM -RA FEW013 BKN046 OVC080 25/22 A2999 RMK AO2 RAB38 SLP158 P0000 60000 T02500222 51003

10-Day Weather Forecast

Almanac

Astronomy

Jul. 30, 2016 Rise Set
Actual Time
Civil Twilight
Nautical Twilight
Astronomical Twilight
Moon
Length of Visible Light
Length of Day
Tomorrow will be .
, % of the Moon is Illuminated

Today's Extremes

State Highs State Lows

Community

WunderPhotos

Upload Photos

1,928,588 photos uploaded!

WunderBlog® & News

Nearby

Air Quality

  Air Quality AQ Index Pollutant
Not available.

Snow Depth

Station Depth Elevation

Earthquake Activity

City Distance Mag. Time & Date
Minimum magnitude displayed is 2.5.

Coastal Water Temperatures

Place Temperature

Stations

Nearby Weather Stations

Station Location Temp. Windchill Dew Point Humidity Wind Precip. Elev Updated Type
                   

Watches & Warnings

There are currently no watches in effect.